Time;durP1;ratioP1;P1;durP2;ratioP2;P2;SDS_P1;SDS_P2;PMS_P1;PMS_P2;Temp;Humidity;BMP_temperature;BMP_pressure;BME280_temperature;BME280_humidity;BME280_pressure;Samples;Min_cycle;Max_cycle;Signal;HPM_P1;HPM_P2
2022/08/07 00:02:14;;;;;;;1.83;0.70;;;;;;;21.44;33.60;98666.88;8445331;28;20226;-77
2022/08/07 00:06:37;;;;;;;4.20;0.70;;;;;;;21.38;33.92;98667.28;8449828;28;20239;-77
2022/08/07 00:10:54;;;;;;;5.90;0.70;;;;;;;21.42;34.27;98674.84;8452041;28;20230;-77
2022/08/07 00:14:59;;;;;;;2.23;0.73;;;;;;;21.27;34.35;98663.69;8452472;28;20236;-77
2022/08/07 00:19:02;;;;;;;1.63;0.50;;;;;;;21.34;34.53;98661.41;8452266;28;20344;-77
2022/08/07 00:23:07;;;;;;;2.00;0.60;;;;;;;21.26;34.29;98664.63;8452149;28;20243;-77
2022/08/07 00:27:11;;;;;;;2.27;0.67;;;;;;;21.19;34.65;98658.19;8451936;28;20296;-77
2022/08/07 00:31:14;;;;;;;3.73;1.17;;;;;;;21.10;35.31;98664.16;8452131;28;20250;-77
2022/08/07 00:35:19;;;;;;;2.20;0.70;;;;;;;21.03;36.18;98662.94;8451819;28;20234;-76
2022/08/07 00:39:25;;;;;;;2.30;0.60;;;;;;;20.97;36.85;98661.63;8451810;28;20228;-76
2022/08/07 00:43:29;;;;;;;7.00;0.70;;;;;;;20.88;36.65;98660.50;8451438;28;20233;-77
2022/08/07 00:47:52;;;;;;;1.93;0.93;;;;;;;20.82;37.30;98657.53;8450848;28;20238;-77
2022/08/07 00:52:11;;;;;;;1.23;0.70;;;;;;;20.78;37.12;98666.59;8451248;28;20288;-77
2022/08/07 00:56:14;;;;;;;2.13;0.80;;;;;;;20.71;37.00;98660.94;8450929;28;20235;-77
2022/08/07 01:00:19;;;;;;;1.03;0.60;;;;;;;20.72;36.68;98662.63;8450826;28;20297;-77
2022/08/07 01:04:23;;;;;;;2.80;0.80;;;;;;;20.62;37.78;98659.88;8450800;28;20240;-76
2022/08/07 01:08:26;;;;;;;2.57;0.70;;;;;;;20.62;37.73;98661.63;8450921;28;20272;-77
2022/08/07 01:12:30;;;;;;;2.40;0.73;;;;;;;20.49;36.96;98657.25;8450269;28;20232;-76
2022/08/07 01:16:35;;;;;;;1.80;0.80;;;;;;;20.53;36.93;98657.06;8450224;28;20236;-77
2022/08/07 01:20:45;;;;;;;1.47;0.60;;;;;;;20.40;36.20;98657.94;8450164;28;20222;-76
2022/08/07 01:25:03;;;;;;;3.50;0.90;;;;;;;20.28;36.60;98657.06;8449990;28;20230;-77
2022/08/07 01:29:27;;;;;;;1.83;0.83;;;;;;;20.19;37.14;98662.16;8450154;28;20229;-77
2022/08/07 01:33:36;;;;;;;1.90;0.80;;;;;;;20.27;36.65;98667.69;8450067;28;20286;-77
2022/08/07 01:37:58;;;;;;;2.40;0.70;;;;;;;20.29;36.59;98665.78;8449549;28;20584;-76
2022/08/07 01:42:02;;;;;;;2.40;0.70;;;;;;;20.23;36.40;98663.59;8450075;28;20452;-76
2022/08/07 01:46:25;;;;;;;2.50;0.70;;;;;;;20.18;36.08;98665.72;8449150;28;20234;-77
2022/08/07 01:50:30;;;;;;;1.23;0.60;;;;;;;20.24;36.25;98662.66;8449616;28;20249;-77
2022/08/07 01:54:35;;;;;;;3.33;0.70;;;;;;;20.27;36.06;98660.63;8449359;28;20524;-76
2022/08/07 01:58:44;;;;;;;2.23;0.60;;;;;;;20.27;35.88;98659.78;8449452;28;20226;-77
2022/08/07 02:02:53;;;;;;;2.07;0.70;;;;;;;20.22;36.02;98654.88;8448434;28;20223;-76
2022/08/07 02:07:17;;;;;;;1.87;0.60;;;;;;;20.12;35.88;98651.22;8448789;28;20234;-77
2022/08/07 02:11:23;;;;;;;2.63;0.40;;;;;;;20.15;36.19;98656.28;8449100;28;20237;-76
2022/08/07 02:15:49;;;;;;;2.30;0.60;;;;;;;20.19;37.75;98651.63;8448872;28;20433;-76
2022/08/07 02:19:55;;;;;;;1.03;0.70;;;;;;;19.93;38.01;98641.22;8448414;28;20234;-77
2022/08/07 02:24:13;;;;;;;1.43;0.90;;;;;;;19.91;38.29;98636.09;8448673;28;20327;-76
2022/08/07 02:28:20;;;;;;;3.27;0.70;;;;;;;19.85;38.79;98633.03;8448123;28;20430;-76
2022/08/07 02:32:28;;;;;;;1.57;0.70;;;;;;;19.95;38.44;98635.84;8448466;28;20230;-76
2022/08/07 02:36:33;;;;;;;3.37;0.90;;;;;;;19.83;38.41;98634.94;8448160;28;20233;-76
2022/08/07 02:40:37;;;;;;;2.23;0.90;;;;;;;19.66;38.77;98626.44;8448145;28;20222;-76
2022/08/07 02:44:41;;;;;;;1.63;0.90;;;;;;;19.56;40.03;98630.69;8447675;28;20246;-76
2022/08/07 02:48:51;;;;;;;2.33;0.70;;;;;;;19.48;39.60;98636.47;8447550;28;20509;-77
2022/08/07 02:53:00;;;;;;;4.60;1.03;;;;;;;19.49;39.88;98624.16;8447665;28;20245;-76
2022/08/07 02:57:08;;;;;;;4.10;0.90;;;;;;;19.43;40.30;98630.69;8447445;28;20245;-76
2022/08/07 03:01:12;;;;;;;2.33;1.00;;;;;;;19.47;40.30;98621.66;8447257;28;20520;-76
2022/08/07 03:05:23;;;;;;;2.50;0.90;;;;;;;19.39;40.09;98621.34;8447342;28;20275;-76
2022/08/07 03:09:26;;;;;;;1.47;0.87;;;;;;;19.40;39.99;98616.94;8447357;28;20244;-76
2022/08/07 03:13:45;;;;;;;5.10;0.90;;;;;;;19.30;40.03;98622.00;8447310;28;20463;-76
2022/08/07 03:17:52;;;;;;;4.43;0.90;;;;;;;19.17;40.49;98615.91;8446528;28;20242;-76
2022/08/07 03:21:58;;;;;;;1.47;0.70;;;;;;;19.20;40.52;98618.34;8447060;28;20230;-76
2022/08/07 03:26:01;;;;;;;2.57;1.00;;;;;;;19.21;40.53;98623.50;8447020;28;20233;-76
2022/08/07 03:30:05;;;;;;;4.23;0.60;;;;;;;19.11;40.58;98619.81;8446797;28;20226;-77
2022/08/07 03:34:13;;;;;;;2.23;0.83;;;;;;;19.08;40.56;98618.25;8446832;28;20463;-77
2022/08/07 03:38:25;;;;;;;2.73;0.90;;;;;;;18.99;40.54;98616.25;8446771;28;20299;-77
2022/08/07 03:42:33;;;;;;;1.37;0.90;;;;;;;19.00;40.82;98624.94;8452038;28;20288;-77
2022/08/07 03:46:39;;;;;;;3.60;0.90;;;;;;;18.89;40.97;98621.28;8453199;28;20237;-77
2022/08/07 03:51:03;;;;;;;1.43;0.80;;;;;;;18.94;40.77;98618.34;8453083;28;20229;-76
2022/08/07 03:55:09;;;;;;;1.20;0.80;;;;;;;18.80;41.49;98616.66;8452472;28;20233;-76
2022/08/07 03:59:14;;;;;;;4.90;0.80;;;;;;;18.90;40.86;98615.06;8453295;28;20226;-77
2022/08/07 04:03:17;;;;;;;3.13;0.93;;;;;;;18.78;41.13;98620.31;8452783;28;20418;-77
2022/08/07 04:07:23;;;;;;;2.03;0.90;;;;;;;18.66;41.16;98629.84;8452943;28;20234;-76
2022/08/07 04:11:28;;;;;;;3.13;1.00;;;;;;;18.75;41.45;98627.44;8452791;28;20290;-77
2022/08/07 04:15:51;;;;;;;2.77;0.90;;;;;;;18.76;41.60;98633.53;8452327;28;20226;-76
2022/08/07 04:19:54;;;;;;;2.17;0.90;;;;;;;18.75;41.19;98627.44;8452573;28;20253;-76
2022/08/07 04:23:57;;;;;;;2.00;0.87;;;;;;;18.65;41.47;98628.97;8452373;28;20426;-77
2022/08/07 04:28:10;;;;;;;3.70;0.93;;;;;;;18.61;41.93;98630.13;8452603;28;20242;-77
2022/08/07 04:32:16;;;;;;;5.83;1.00;;;;;;;18.64;42.12;98631.72;8452063;28;20226;-77
2022/08/07 04:36:19;;;;;;;2.07;0.90;;;;;;;18.60;42.05;98630.22;8451815;28;20244;-76
2022/08/07 04:40:27;;;;;;;1.37;1.00;;;;;;;18.65;42.27;98634.22;8452006;28;20230;-77
2022/08/07 04:44:35;;;;;;;4.23;1.17;;;;;;;18.53;42.02;98632.44;8451602;28;20230;-77
2022/08/07 04:49:03;;;;;;;1.83;0.97;;;;;;;18.62;42.30;98636.22;8427209;28;20230;-77
2022/08/07 04:53:24;;;;;;;1.63;0.90;;;;;;;18.66;41.85;98642.97;8451055;28;20226;-77
2022/08/07 04:57:52;;;;;;;1.27;0.90;;;;;;;18.69;42.00;98648.81;8450695;28;20237;-76
2022/08/07 05:02:22;;;;;;;2.10;1.00;;;;;;;18.83;41.96;98641.84;8450886;28;20226;-75
2022/08/07 05:06:36;;;;;;;2.47;1.00;;;;;;;18.85;42.42;98650.44;8451166;28;20287;-75
2022/08/07 05:10:48;;;;;;;2.03;0.90;;;;;;;18.91;41.82;98650.06;8451156;28;20230;-76
2022/08/07 05:15:14;;;;;;;1.67;0.90;;;;;;;18.95;41.57;98643.66;8450611;28;20230;-74
2022/08/07 05:19:29;;;;;;;2.60;0.90;;;;;;;19.11;41.12;98648.69;8450251;28;20238;-76
2022/08/07 05:23:49;;;;;;;2.53;0.70;;;;;;;19.13;41.25;98652.03;8450529;28;20232;-75
2022/08/07 05:27:53;;;;;;;3.13;0.90;;;;;;;19.23;41.78;98652.25;8449528;28;20233;-74
2022/08/07 05:32:17;;;;;;;1.87;0.90;;;;;;;19.25;41.06;98645.97;8449316;28;20232;-75
2022/08/07 05:36:23;;;;;;;1.57;0.60;;;;;;;19.47;40.16;98654.97;8450317;28;20279;-76
2022/08/07 05:40:34;;;;;;;2.50;0.70;;;;;;;19.54;40.35;98653.59;8449666;28;20229;-75
2022/08/07 05:44:37;;;;;;;0.97;0.80;;;;;;;19.61;40.00;98652.22;8449745;28;20240;-76
2022/08/07 05:48:54;;;;;;;1.93;0.80;;;;;;;19.80;40.17;98648.28;8449181;28;20261;-76
2022/08/07 05:53:02;;;;;;;2.77;0.93;;;;;;;19.95;40.05;98655.06;8449631;28;20318;-76
2022/08/07 05:57:06;;;;;;;1.90;0.80;;;;;;;20.04;39.80;98653.59;8449298;28;20237;-76
2022/08/07 06:01:10;;;;;;;1.23;0.70;;;;;;;20.13;38.71;98654.72;8449389;28;20312;-76
2022/08/07 06:05:14;;;;;;;1.03;0.70;;;;;;;20.44;38.50;98648.03;8448181;28;20222;-76
2022/08/07 06:09:19;;;;;;;2.90;0.90;;;;;;;20.61;38.16;98652.06;8449095;28;20226;-76
2022/08/07 06:13:42;;;;;;;1.73;0.73;;;;;;;20.69;37.33;98654.97;8448974;28;20226;-76
2022/08/07 06:18:05;;;;;;;1.53;0.73;;;;;;;20.55;37.02;98653.34;8448542;28;20525;-75
2022/08/07 06:22:08;;;;;;;1.73;0.60;;;;;;;20.97;36.95;98647.63;8448626;28;20226;-75
2022/08/07 06:26:26;;;;;;;3.90;1.20;;;;;;;20.87;35.25;98650.13;8448618;28;20515;-76
2022/08/07 06:30:29;;;;;;;3.80;0.90;;;;;;;20.91;35.94;98646.28;8448433;28;20231;-75
2022/08/07 06:34:43;;;;;;;2.43;0.87;;;;;;;20.68;35.34;98654.13;8448486;28;20234;-76
2022/08/07 06:38:47;;;;;;;1.40;0.80;;;;;;;20.78;35.12;98653.44;8448257;28;20227;-76
2022/08/07 06:43:12;;;;;;;4.07;0.87;;;;;;;21.02;35.14;98656.03;8442643;28;20226;-76
2022/08/07 06:47:24;;;;;;;1.50;0.83;;;;;;;21.28;34.98;98656.63;8447712;28;20253;-75
2022/08/07 06:51:30;;;;;;;4.30;0.93;;;;;;;21.31;35.08;98664.31;8447870;28;20521;-75
2022/08/07 06:55:35;;;;;;;2.87;0.90;;;;;;;21.84;34.64;98659.28;8447762;28;20518;-75
2022/08/07 07:00:01;;;;;;;1.93;0.80;;;;;;;22.28;34.19;98654.03;8447460;28;20276;-75
2022/08/07 07:04:19;;;;;;;4.20;0.90;;;;;;;22.28;33.98;98648.75;8447269;28;20268;-75
2022/08/07 07:08:34;;;;;;;1.00;0.70;;;;;;;22.62;33.87;98652.09;8447357;28;20228;-75
2022/08/07 07:12:51;;;;;;;1.43;0.63;;;;;;;23.10;33.65;98647.28;8446959;28;20454;-75
2022/08/07 07:16:59;;;;;;;1.83;0.90;;;;;;;23.28;33.38;98650.16;8447211;28;20235;-75
2022/08/07 07:21:07;;;;;;;1.83;0.87;;;;;;;23.55;32.96;98650.41;8445991;28;20237;-76
2022/08/07 07:25:21;;;;;;;2.43;1.03;;;;;;;23.67;32.18;98645.03;8447314;28;20218;-76
2022/08/07 07:29:48;;;;;;;4.13;1.13;;;;;;;22.99;32.55;98648.16;8446382;28;20559;-74
2022/08/07 07:34:14;;;;;;;2.30;1.00;;;;;;;23.94;31.85;98639.97;8446550;28;20239;-75
2022/08/07 07:38:18;;;;;;;2.43;0.90;;;;;;;24.14;31.11;98638.19;8446781;28;20229;-75
2022/08/07 07:42:22;;;;;;;1.50;0.70;;;;;;;24.39;30.94;98634.16;8446641;28;20236;-75
2022/08/07 07:46:36;;;;;;;3.43;0.80;;;;;;;24.41;31.32;98628.72;8446672;28;20421;-75
2022/08/07 07:51:01;;;;;;;3.17;0.80;;;;;;;24.70;30.23;98612.84;8431155;28;20225;-73
2022/08/07 07:55:05;;;;;;;1.57;0.90;;;;;;;25.27;30.20;98619.97;8446576;28;20227;-76
2022/08/07 07:59:08;;;;;;;1.10;0.70;;;;;;;24.75;29.61;98620.34;8446333;28;20399;-76
2022/08/07 08:03:13;;;;;;;2.07;0.93;;;;;;;25.05;28.75;98615.81;8446275;28;20226;-76
2022/08/07 08:07:20;;;;;;;1.20;0.70;;;;;;;24.82;29.07;98604.72;8446188;28;20509;-76
2022/08/07 08:11:37;;;;;;;2.07;0.70;;;;;;;25.09;27.29;98610.09;8446271;28;20393;-77
2022/08/07 08:16:01;;;;;;;2.03;0.90;;;;;;;25.02;27.09;98605.50;8445879;28;20226;-76
2022/08/07 08:20:07;;;;;;;2.60;1.00;;;;;;;25.23;27.05;98606.16;8446368;28;20254;-75
2022/08/07 08:28:50;;;;;;;2.53;0.93;;;;;;;24.91;27.11;98599.41;8451060;28;20230;-76
2022/08/07 08:32:55;;;;;;;2.30;0.93;;;;;;;25.46;26.92;98603.97;8452231;28;20231;-77
2022/08/07 08:36:59;;;;;;;1.97;1.03;;;;;;;25.75;26.73;98602.97;8452251;28;20237;-76
2022/08/07 08:41:11;;;;;;;1.27;0.80;;;;;;;25.36;26.33;98609.31;8452026;28;20226;-76
2022/08/07 08:45:21;;;;;;;2.40;0.90;;;;;;;25.50;26.35;98600.03;8451760;28;20366;-77
2022/08/07 08:49:49;;;;;;;1.90;1.00;;;;;;;25.38;26.76;98603.03;8451694;28;20252;-77
2022/08/07 08:54:11;;;;;;;1.70;1.00;;;;;;;26.28;25.99;98586.25;8451360;28;20230;-76
2022/08/07 08:58:19;;;;;;;2.90;1.20;;;;;;;26.38;25.36;98583.50;8451624;28;20226;-76
2022/08/07 09:02:37;;;;;;;1.20;0.80;;;;;;;26.42;24.59;98586.69;8451192;28;20223;-76
2022/08/07 09:06:47;;;;;;;3.80;0.90;;;;;;;27.43;24.13;98597.66;8450979;28;20227;-76
2022/08/07 09:11:00;;;;;;;1.70;0.83;;;;;;;26.85;24.07;98580.56;8450726;28;20278;-76
2022/08/07 09:15:31;;;;;;;1.70;0.90;;;;;;;26.72;24.17;98578.31;8451060;28;20429;-76
2022/08/07 09:19:58;;;;;;;3.60;1.20;;;;;;;26.79;24.50;98577.69;8450295;28;20229;-76
2022/08/07 09:24:06;;;;;;;1.53;0.70;;;;;;;27.47;22.98;98582.22;8450603;28;20298;-77
2022/08/07 09:28:33;;;;;;;1.40;0.80;;;;;;;28.40;22.52;98578.56;8450516;28;20235;-77
2022/08/07 09:33:02;;;;;;;2.33;0.90;;;;;;;28.03;21.63;98575.41;8449801;28;20538;-76
2022/08/07 09:37:12;;;;;;;3.53;0.87;;;;;;;28.03;23.85;98566.59;8449676;28;20451;-76
2022/08/07 09:41:24;;;;;;;2.60;0.80;;;;;;;27.41;23.18;98581.03;8449795;28;20238;-76
2022/08/07 09:45:40;;;;;;;2.73;1.00;;;;;;;28.20;23.51;98570.09;8450100;28;20285;-77
2022/08/07 09:50:11;;;;;;;1.23;0.80;;;;;;;29.19;21.66;98568.16;8449538;28;20548;-74
2022/08/07 09:54:34;;;;;;;1.97;0.80;;;;;;;28.64;22.18;98559.09;8449610;28;20228;-75
2022/08/07 09:59:04;;;;;;;1.97;0.80;;;;;;;29.49;21.72;98558.50;8449570;28;20452;-75
2022/08/07 10:03:56;;;;;;;1.43;0.60;;;;;;;30.37;20.75;98556.47;8448664;28;20225;-76
2022/08/07 10:08:37;;;;;;;2.80;0.80;;;;;;;30.68;21.28;98542.97;8435567;28;20233;-76
2022/08/07 10:12:58;;;;;;;3.87;0.80;;;;;;;29.00;21.27;98540.03;8449027;28;20236;-76
2022/08/07 10:17:09;;;;;;;2.20;1.10;;;;;;;29.72;22.07;98523.00;8448763;28;20530;-75
2022/08/07 10:21:26;;;;;;;1.93;0.70;;;;;;;30.62;20.32;98527.66;8424698;28;20234;-76
2022/08/07 10:25:58;;;;;;;1.53;0.87;;;;;;;29.55;20.92;98509.78;8397959;28;20399;-76
2022/08/07 10:30:06;;;;;;;4.43;1.30;;;;;;;29.56;20.97;98518.63;8414876;28;20236;-76
2022/08/07 10:34:29;;;;;;;1.37;0.70;;;;;;;30.05;19.92;98507.63;8414840;28;20229;-77
2022/08/07 10:38:43;;;;;;;1.90;0.80;;;;;;;30.41;19.71;98507.00;8414466;28;20233;-75
2022/08/07 10:42:58;;;;;;;0.90;0.70;;;;;;;30.81;19.29;98507.56;8397550;28;20409;-75
2022/08/07 10:47:08;;;;;;;2.20;0.80;;;;;;;30.85;18.59;98498.16;8414184;28;20242;-75
2022/08/07 10:51:18;;;;;;;2.07;0.70;;;;;;;31.31;18.85;98500.63;8413512;28;20270;-74
2022/08/07 10:55:46;;;;;;;1.13;0.70;;;;;;;30.58;18.68;98486.28;8413792;28;20237;-76
2022/08/07 11:00:04;;;;;;;3.57;0.80;;;;;;;30.90;19.62;98485.13;8396962;28;20293;-80
2022/08/07 11:04:29;;;;;;;2.10;0.70;;;;;;;30.86;19.63;98473.06;8441571;28;20244;-75
2022/08/07 11:08:43;;;;;;;3.73;0.80;;;;;;;31.46;19.49;98457.78;8447196;28;20234;-75
2022/08/07 11:12:52;;;;;;;3.00;0.80;;;;;;;30.71;18.74;98461.56;8447419;28;20233;-74
2022/08/07 11:17:10;;;;;;;0.90;0.73;;;;;;;30.31;18.95;98460.97;8447037;28;20246;-76
2022/08/07 11:21:18;;;;;;;1.47;0.77;;;;;;;29.47;19.42;98460.97;8447459;28;20235;-75
2022/08/07 11:25:25;;;;;;;1.10;0.70;;;;;;;30.51;19.40;98467.47;8446960;28;20282;-75
2022/08/07 11:29:33;;;;;;;1.83;0.70;;;;;;;31.21;18.93;98459.16;8447157;28;20625;-78
2022/08/07 11:33:51;;;;;;;1.03;0.60;;;;;;;31.40;18.49;98449.66;8446959;28;20394;-76
2022/08/07 11:38:10;;;;;;;1.27;0.60;;;;;;;31.42;17.22;98436.94;8425940;28;20258;-75
2022/08/07 11:42:18;;;;;;;2.73;0.80;;;;;;;30.88;18.10;98440.81;8441827;28;20289;-75
2022/08/07 11:46:34;;;;;;;1.43;0.70;;;;;;;30.23;17.79;98431.69;8443185;28;20234;-76
2022/08/07 11:50:50;;;;;;;2.47;0.70;;;;;;;29.46;18.65;98421.97;8415631;28;20241;-76
2022/08/07 11:55:05;;;;;;;1.07;0.70;;;;;;;31.05;18.88;98428.91;8408990;28;20238;-75
2022/08/07 11:59:46;;;;;;;5.60;0.80;;;;;;;30.05;17.81;98424.84;8413384;28;20237;-76
2022/08/07 12:04:22;;;;;;;3.93;0.90;;;;;;;30.49;17.34;98425.94;8446723;28;20233;-74
2022/08/07 12:08:31;;;;;;;2.10;0.60;;;;;;;30.45;18.56;98421.97;8453069;28;20230;-76
2022/08/07 12:12:38;;;;;;;2.80;0.63;;;;;;;31.02;17.44;98420.47;8452895;28;20229;-76
2022/08/07 12:16:46;;;;;;;2.50;0.60;;;;;;;30.32;18.04;98414.59;8453119;28;20324;-76
2022/08/07 12:20:58;;;;;;;3.40;0.73;;;;;;;30.93;17.97;98411.72;8452408;28;20229;-76
2022/08/07 12:29:54;;;;;;;3.37;0.70;;;;;;;29.95;18.57;98401.06;8421115;28;20234;-75
2022/08/07 12:33:57;;;;;;;1.80;0.70;;;;;;;30.87;18.01;98399.88;8418549;28;20238;-75
2022/08/07 12:38:06;;;;;;;3.30;1.00;;;;;;;31.45;18.48;98393.72;8418484;28;20418;-76
2022/08/07 12:42:19;;;;;;;1.13;0.67;;;;;;;31.22;17.45;98396.59;8418396;28;20504;-75
2022/08/07 12:46:41;;;;;;;2.53;0.70;;;;;;;31.66;18.12;98387.56;8418539;28;20238;-76
2022/08/07 12:50:53;;;;;;;0.80;0.40;;;;;;;32.11;17.78;98385.47;8401238;28;20223;-75
2022/08/07 12:55:00;;;;;;;1.20;0.80;;;;;;;32.31;18.26;98385.56;8418114;28;20430;-74
2022/08/07 12:59:11;;;;;;;3.37;0.60;;;;;;;31.88;16.32;98374.97;8417776;28;22730;-76
2022/08/07 13:03:50;;;;;;;0.60;0.53;;;;;;;30.72;16.80;98375.03;8439321;28;20247;-75
2022/08/07 13:08:23;;;;;;;2.47;0.60;;;;;;;31.44;18.28;98368.00;8444810;28;20243;-76
2022/08/07 13:12:32;;;;;;;1.13;0.60;;;;;;;31.39;16.96;98371.25;8450548;28;20234;-76
2022/08/07 13:16:48;;;;;;;1.23;0.70;;;;;;;30.55;17.87;98364.53;8450855;28;20228;-76
2022/08/07 13:20:57;;;;;;;2.20;0.67;;;;;;;31.09;17.83;98354.47;8450553;28;20236;-77
2022/08/07 13:25:06;;;;;;;0.70;0.60;;;;;;;31.14;17.36;98347.53;8450354;28;20230;-76
2022/08/07 13:29:12;;;;;;;5.27;0.70;;;;;;;30.51;17.70;98357.91;8450168;28;20533;-76
2022/08/07 13:33:25;;;;;;;3.27;0.83;;;;;;;30.89;18.27;98352.41;8450385;28;20231;-76
2022/08/07 13:37:57;;;;;;;2.53;0.90;;;;;;;30.43;17.62;98344.66;8449796;28;20229;-77
2022/08/07 13:42:03;;;;;;;1.80;0.80;;;;;;;30.81;18.25;98336.47;8449873;28;20298;-77
2022/08/07 13:46:06;;;;;;;2.10;0.87;;;;;;;31.54;17.95;98339.09;8419290;28;20242;-77
2022/08/07 13:50:28;;;;;;;1.10;0.70;;;;;;;31.68;17.43;98330.16;8415915;28;20244;-77
2022/08/07 13:54:39;;;;;;;1.27;0.60;;;;;;;30.59;17.84;98332.94;8415650;28;20290;-77
2022/08/07 13:59:02;;;;;;;2.27;0.80;;;;;;;29.84;18.88;98320.63;8415229;28;20230;-77
2022/08/07 14:03:09;;;;;;;2.30;0.90;;;;;;;30.61;19.02;98320.22;8435275;28;20234;-77
2022/08/07 14:07:19;;;;;;;1.40;0.80;;;;;;;30.94;17.86;98309.91;8449334;28;20401;-77
2022/08/07 14:11:25;;;;;;;2.60;0.60;;;;;;;30.93;19.08;98307.44;8448620;28;20258;-78
2022/08/07 14:15:52;;;;;;;1.57;0.80;;;;;;;30.46;18.44;98309.53;8448342;28;20227;-77
2022/08/07 14:20:00;;;;;;;2.00;0.90;;;;;;;30.31;18.62;98300.69;8448946;28;20348;-77
2022/08/07 14:24:29;;;;;;;1.23;0.60;;;;;;;30.35;18.49;98294.84;8448053;28;20233;-77
2022/08/07 14:28:36;;;;;;;1.20;0.70;;;;;;;30.54;19.63;98293.41;8448491;28;20299;-78
2022/08/07 14:33:01;;;;;;;1.57;0.73;;;;;;;30.66;18.93;98291.09;8447944;28;20232;-77
2022/08/07 14:37:09;;;;;;;1.10;0.80;;;;;;;29.78;18.63;98295.47;8448264;28;20576;-77
2022/08/07 14:41:26;;;;;;;1.10;0.70;;;;;;;29.49;19.17;98281.03;8448051;28;20308;-77
2022/08/07 14:45:50;;;;;;;1.53;0.80;;;;;;;29.56;19.09;98281.97;8447544;28;20242;-77
2022/08/07 14:49:56;;;;;;;1.83;0.80;;;;;;;28.98;19.62;98286.13;8447762;28;20232;-77
2022/08/07 14:54:02;;;;;;;4.17;0.90;;;;;;;29.14;19.07;98288.69;8447665;28;20233;-77
2022/08/07 14:58:28;;;;;;;0.77;0.60;;;;;;;29.66;19.57;98284.38;8447459;28;20228;-77
2022/08/07 15:02:51;;;;;;;6.53;5.40;;;;;;;29.92;19.19;98273.28;8446809;28;20229;-77
2022/08/07 15:06:59;;;;;;;18.17;14.17;;;;;;;29.89;19.01;98283.50;8447367;28;20444;-76
2022/08/07 15:11:24;;;;;;;5.20;4.70;;;;;;;29.98;19.88;98271.72;8446980;28;20232;-77
2022/08/07 15:15:51;;;;;;;3.90;3.20;;;;;;;29.63;19.81;98276.75;8446878;28;20228;-77
2022/08/07 15:19:59;;;;;;;1.83;0.70;;;;;;;28.98;19.63;98283.47;8446600;28;20257;-76
2022/08/07 15:24:24;;;;;;;1.40;0.80;;;;;;;29.06;19.01;98280.72;8446885;28;20229;-78
2022/08/07 15:28:47;;;;;;;1.30;0.80;;;;;;;28.92;19.02;98273.50;8439695;28;20505;-77
2022/08/07 15:33:16;;;;;;;3.33;0.80;;;;;;;28.78;18.97;98264.44;8412940;28;20509;-78
2022/08/07 15:37:25;;;;;;;1.33;0.80;;;;;;;28.77;20.69;98265.41;8413150;28;20433;-78
2022/08/07 15:41:31;;;;;;;1.60;0.80;;;;;;;28.67;19.50;98270.97;8413202;28;20241;-77
2022/08/07 15:45:56;;;;;;;2.43;1.00;;;;;;;28.64;20.66;98264.19;8412499;28;20238;-79
2022/08/07 15:50:15;;;;;;;2.37;0.90;;;;;;;28.51;20.65;98258.56;8413173;28;20229;-77
2022/08/07 15:54:39;;;;;;;2.67;0.70;;;;;;;28.22;19.95;98253.91;8412884;28;20228;-77
2022/08/07 15:58:49;;;;;;;1.00;0.80;;;;;;;28.55;20.49;98251.09;8412830;28;20255;-76
2022/08/07 16:02:56;;;;;;;2.03;1.10;;;;;;;28.47;20.01;98244.78;8429665;28;20229;-76
2022/08/07 16:07:02;;;;;;;1.53;0.80;;;;;;;28.17;20.10;98248.25;8446569;28;20229;-76
2022/08/07 16:11:13;;;;;;;1.67;0.80;;;;;;;28.46;20.52;98247.59;8446140;28;20239;-77
2022/08/07 16:15:35;;;;;;;1.20;0.83;;;;;;;28.33;20.52;98242.03;8445974;28;20235;-76
2022/08/07 16:20:24;;;;;;;1.87;0.83;;;;;;;28.16;20.44;98233.28;8447108;28;20232;-76
2022/08/07 16:24:42;;;;;;;1.30;0.70;;;;;;;28.21;20.34;98231.75;8446504;28;20231;-74
2022/08/07 16:29:03;;;;;;;2.10;1.00;;;;;;;27.98;20.64;98231.69;8445923;28;20252;-75
2022/08/07 16:33:27;;;;;;;2.50;1.00;;;;;;;27.91;21.00;98229.91;8445995;28;20231;-75
2022/08/07 16:38:08;;;;;;;1.97;1.00;;;;;;;28.07;21.72;98230.66;8445401;28;20220;-74
2022/08/07 16:42:35;;;;;;;1.90;1.00;;;;;;;28.08;21.61;98232.34;8445941;28;20240;-75
2022/08/07 16:47:06;;;;;;;1.80;0.90;;;;;;;28.03;21.17;98220.56;8445663;28;20249;-75
2022/08/07 16:51:34;;;;;;;3.10;0.90;;;;;;;27.95;21.57;98225.88;8390434;28;20243;-75
2022/08/07 16:56:03;;;;;;;1.27;0.70;;;;;;;27.94;21.16;98229.56;8451470;28;20404;-75
2022/08/07 17:00:10;;;;;;;2.67;1.10;;;;;;;27.86;21.48;98217.91;8451769;28;20305;-75
2022/08/07 17:04:25;;;;;;;0.80;0.70;;;;;;;27.82;20.93;98227.25;8451572;28;20276;-75
2022/08/07 17:08:37;;;;;;;3.60;0.77;;;;;;;27.75;21.45;98228.09;8451491;28;20228;-75
2022/08/07 17:13:24;;;;;;;1.30;0.90;;;;;;;27.73;22.14;98230.94;8450960;28;20243;-75
2022/08/07 17:17:52;;;;;;;3.70;1.13;;;;;;;27.58;22.00;98227.31;8450960;28;20416;-74
2022/08/07 17:22:01;;;;;;;1.23;0.83;;;;;;;27.52;21.51;98222.69;8450706;28;20245;-75
2022/08/07 17:26:14;;;;;;;1.53;0.80;;;;;;;27.33;21.41;98231.84;8450938;28;20241;-74
2022/08/07 17:30:39;;;;;;;2.20;0.83;;;;;;;27.12;21.89;98235.81;8450381;28;20227;-75
2022/08/07 17:35:11;;;;;;;2.17;0.80;;;;;;;27.22;22.11;98233.81;8450307;28;20459;-75
2022/08/07 17:39:40;;;;;;;4.37;1.00;;;;;;;27.19;22.81;98234.16;8450377;28;20229;-75
2022/08/07 17:44:11;;;;;;;4.50;0.80;;;;;;;27.10;22.36;98238.66;8429366;28;20257;-75
2022/08/07 17:48:39;;;;;;;2.23;0.90;;;;;;;27.06;22.85;98237.31;8416124;28;20227;-75
2022/08/07 17:52:50;;;;;;;0.93;0.80;;;;;;;27.11;23.14;98234.16;8415887;28;20569;-74
2022/08/07 17:56:59;;;;;;;3.33;0.90;;;;;;;27.04;23.34;98241.16;8399182;28;20230;-74
2022/08/07 18:01:06;;;;;;;3.63;0.90;;;;;;;27.09;24.23;98244.13;8416530;28;20235;-75
2022/08/07 18:05:29;;;;;;;1.17;0.73;;;;;;;27.04;24.14;98241.16;8449264;28;20230;-74
2022/08/07 18:09:59;;;;;;;3.63;1.00;;;;;;;26.99;23.67;98248.78;8448648;28;20238;-74
2022/08/07 18:14:14;;;;;;;1.23;0.90;;;;;;;26.98;24.75;98250.63;8448697;28;20411;-74
2022/08/07 18:18:18;;;;;;;2.23;0.87;;;;;;;26.96;24.99;98251.75;8448458;28;20223;-74
2022/08/07 18:22:47;;;;;;;2.80;0.97;;;;;;;26.89;25.26;98256.91;8442581;28;20225;-74
2022/08/07 18:27:13;;;;;;;2.30;1.00;;;;;;;26.89;25.33;98260.41;8446530;28;20236;-74
2022/08/07 18:31:38;;;;;;;2.80;0.80;;;;;;;26.80;25.15;98256.06;8448359;28;20234;-74
2022/08/07 18:35:51;;;;;;;5.60;1.50;;;;;;;26.75;28.57;98260.22;8448500;28;20507;-74
2022/08/07 18:40:01;;;;;;;10.57;2.00;;;;;;;26.65;32.32;98261.19;8448094;28;20423;-75
2022/08/07 18:44:32;;;;;;;5.70;1.47;;;;;;;26.60;31.86;98262.66;8447982;28;20236;-74
2022/08/07 18:49:02;;;;;;;1.80;1.03;;;;;;;26.49;30.24;98269.94;8447501;28;20231;-74
2022/08/07 18:53:35;;;;;;;1.60;1.03;;;;;;;26.49;28.47;98271.75;8447267;28;20245;-74
2022/08/07 18:57:51;;;;;;;2.73;1.10;;;;;;;26.41;28.91;98267.25;8447769;28;20233;-74
2022/08/07 19:02:07;;;;;;;2.83;1.00;;;;;;;26.38;28.08;98270.22;8447140;28;20226;-74
2022/08/07 19:06:39;;;;;;;5.13;1.40;;;;;;;26.12;31.33;98281.75;8447577;28;20237;-74
2022/08/07 19:10:54;;;;;;;2.10;1.50;;;;;;;25.92;31.99;98282.97;8445899;28;20301;-74
2022/08/07 19:15:04;;;;;;;5.00;1.20;;;;;;;25.86;35.62;98292.38;8447517;28;20247;-71
2022/08/07 19:19:38;;;;;;;6.57;1.87;;;;;;;25.92;32.11;98299.72;8446931;28;20529;-74
2022/08/07 19:23:43;;;;;;;2.10;1.30;;;;;;;25.60;31.67;98307.47;8447250;28;20228;-74
2022/08/07 19:28:04;;;;;;;1.63;1.10;;;;;;;25.61;32.07;98317.06;8447019;28;20231;-74
2022/08/07 19:32:27;;;;;;;1.67;1.00;;;;;;;25.31;32.94;98324.47;8446987;28;20566;-74
2022/08/07 19:36:49;;;;;;;2.70;1.20;;;;;;;25.24;34.05;98331.34;8446919;28;20228;-74
2022/08/07 19:40:59;;;;;;;3.50;1.50;;;;;;;25.13;33.46;98335.03;8446402;28;20243;-73
2022/08/07 19:45:05;;;;;;;7.97;1.67;;;;;;;24.91;32.27;98323.91;8446778;28;20249;-76
2022/08/07 19:49:15;;;;;;;5.00;1.60;;;;;;;24.86;33.40;98336.75;8446570;28;20247;-72
2022/08/07 19:53:20;;;;;;;2.43;1.60;;;;;;;24.71;35.60;98332.97;8446664;28;20253;-74
2022/08/07 19:57:45;;;;;;;3.00;1.33;;;;;;;24.68;34.91;98330.63;8446701;28;20319;-73
2022/08/07 20:02:13;;;;;;;3.40;1.40;;;;;;;24.54;32.70;98350.47;8446261;28;20221;-71
2022/08/07 20:06:29;;;;;;;3.03;1.20;;;;;;;24.51;33.72;98348.97;8446628;28;20422;-75
2022/08/07 20:10:38;;;;;;;3.23;1.43;;;;;;;24.51;33.75;98345.47;8446421;28;20228;-74